Wilton, Minnesota
Current Conditions -  °F | °C
As of 7:32 AM on Wednesday 26 Nov 2014 (Local Time) from KBJI Reporting Station
Light Snow Light Snow  
Wind Chill: -6°   Ceiling: 1300
Heat Index:   Visibility: 5mi
Dew Point:   Wind: 10mph
Humidity: 84%   Direction: 360°N
Pressure: 30.21"   Gusts: NA
Location:  47.5°N, 95°W
Report Text: KBJI 261332Z AUTO 36009KT 5SM -SN BKN013 M13/M15 A3021 RMK AO2 T11301152
Loading
Personal Weather Stations






























Interactive Weather Map New forecast layout! Learn more

10-Day Weather Forecast

Advertisements
Track Severe Weather on mobile